sensor_id;sensor_type;location;lat;lon;timestamp;pressure;altitude;pressure_sealevel;temperature;humidity
73085;BME280;62974;49.460;10.892;2023-03-11T00:00:27;96362.63;;;1.88;73.85
73085;BME280;62974;49.460;10.892;2023-03-11T00:02:59;96370.84;;;1.79;72.96
73085;BME280;62974;49.460;10.892;2023-03-11T00:05:28;96363.28;;;1.91;73.27
73085;BME280;62974;49.460;10.892;2023-03-11T00:07:58;96379.03;;;1.55;73.13
73085;BME280;62974;49.460;10.892;2023-03-11T00:10:27;96364.59;;;1.42;72.55
73085;BME280;62974;49.460;10.892;2023-03-11T00:12:56;96406.94;;;1.72;72.84
73085;BME280;62974;49.460;10.892;2023-03-11T00:15:24;96382.19;;;1.50;72.70
73085;BME280;62974;49.460;10.892;2023-03-11T00:17:51;96377.28;;;1.47;72.85
73085;BME280;62974;49.460;10.892;2023-03-11T00:20:21;96391.03;;;1.42;73.08
73085;BME280;62974;49.460;10.892;2023-03-11T00:22:49;96386.75;;;1.56;72.50
73085;BME280;62974;49.460;10.892;2023-03-11T00:25:19;96383.78;;;1.36;72.36
73085;BME280;62974;49.460;10.892;2023-03-11T00:27:47;96393.41;;;1.52;72.12
73085;BME280;62974;49.460;10.892;2023-03-11T00:30:16;96401.56;;;1.65;73.55
73085;BME280;62974;49.460;10.892;2023-03-11T00:32:44;96396.66;;;1.92;74.00
73085;BME280;62974;49.460;10.892;2023-03-11T00:35:16;96397.28;;;1.27;74.41
73085;BME280;62974;49.460;10.892;2023-03-11T00:37:45;96414.59;;;1.29;73.62
73085;BME280;62974;49.460;10.892;2023-03-11T00:40:13;96413.06;;;1.72;74.54
73085;BME280;62974;49.460;10.892;2023-03-11T00:42:43;96438.53;;;1.73;74.20
73085;BME280;62974;49.460;10.892;2023-03-11T00:45:11;96434.50;;;1.40;73.98
73085;BME280;62974;49.460;10.892;2023-03-11T00:47:39;96430.97;;;1.48;74.25
73085;BME280;62974;49.460;10.892;2023-03-11T00:50:08;96427.50;;;1.24;74.01
73085;BME280;62974;49.460;10.892;2023-03-11T00:52:37;96438.56;;;1.28;73.82
73085;BME280;62974;49.460;10.892;2023-03-11T00:55:05;96442.84;;;1.52;75.15
73085;BME280;62974;49.460;10.892;2023-03-11T00:57:33;96442.69;;;1.30;75.05
73085;BME280;62974;49.460;10.892;2023-03-11T01:00:03;96451.59;;;1.52;75.37
73085;BME280;62974;49.460;10.892;2023-03-11T01:02:34;96448.97;;;1.29;74.92
73085;BME280;62974;49.460;10.892;2023-03-11T01:05:03;96444.97;;;1.11;75.55
73085;BME280;62974;49.460;10.892;2023-03-11T01:07:30;96456.53;;;1.10;75.90
73085;BME280;62974;49.460;10.892;2023-03-11T01:13:00;96484.44;;;0.81;76.80
73085;BME280;62974;49.460;10.892;2023-03-11T01:15:31;96487.13;;;1.04;77.30
73085;BME280;62974;49.460;10.892;2023-03-11T01:17:59;96487.41;;;0.86;77.80
73085;BME280;62974;49.460;10.892;2023-03-11T01:20:27;96486.59;;;0.78;77.29
73085;BME280;62974;49.460;10.892;2023-03-11T01:22:54;96477.03;;;0.77;78.17
73085;BME280;62974;49.460;10.892;2023-03-11T01:25:23;96494.84;;;0.83;77.52
73085;BME280;62974;49.460;10.892;2023-03-11T01:27:51;96504.47;;;0.68;77.62
73085;BME280;62974;49.460;10.892;2023-03-11T01:30:20;96502.47;;;0.78;78.08
73085;BME280;62974;49.460;10.892;2023-03-11T01:32:50;96495.75;;;0.67;78.02
73085;BME280;62974;49.460;10.892;2023-03-11T01:35:19;96497.22;;;0.70;79.02
73085;BME280;62974;49.460;10.892;2023-03-11T01:37:47;96506.00;;;0.62;79.37
73085;BME280;62974;49.460;10.892;2023-03-11T01:40:19;96506.31;;;0.67;79.25
73085;BME280;62974;49.460;10.892;2023-03-11T01:42:46;96511.63;;;0.59;79.51
73085;BME280;62974;49.460;10.892;2023-03-11T01:45:39;96510.97;;;0.88;79.67
73085;BME280;62974;49.460;10.892;2023-03-11T01:48:11;96517.88;;;0.58;80.26
73085;BME280;62974;49.460;10.892;2023-03-11T01:50:43;96513.41;;;1.28;80.36
73085;BME280;62974;49.460;10.892;2023-03-11T01:53:14;96539.16;;;0.65;80.70
73085;BME280;62974;49.460;10.892;2023-03-11T01:55:43;96532.91;;;0.58;81.26
73085;BME280;62974;49.460;10.892;2023-03-11T01:58:15;96541.50;;;0.99;81.34
73085;BME280;62974;49.460;10.892;2023-03-11T02:00:45;96547.09;;;0.57;82.11
73085;BME280;62974;49.460;10.892;2023-03-11T02:03:18;96545.50;;;0.94;81.89
73085;BME280;62974;49.460;10.892;2023-03-11T02:05:48;96553.78;;;0.91;82.27
73085;BME280;62974;49.460;10.892;2023-03-11T02:08:16;96550.53;;;0.65;82.44
73085;BME280;62974;49.460;10.892;2023-03-11T02:10:44;96557.34;;;0.60;82.60
73085;BME280;62974;49.460;10.892;2023-03-11T02:13:13;96552.31;;;0.73;83.19
73085;BME280;62974;49.460;10.892;2023-03-11T02:15:41;96546.22;;;0.72;83.17
73085;BME280;62974;49.460;10.892;2023-03-11T02:18:11;96550.25;;;0.52;82.74
73085;BME280;62974;49.460;10.892;2023-03-11T02:20:46;96561.34;;;0.47;83.88
73085;BME280;62974;49.460;10.892;2023-03-11T02:23:16;96545.63;;;0.54;83.68
73085;BME280;62974;49.460;10.892;2023-03-11T02:25:50;96548.00;;;0.25;84.47
73085;BME280;62974;49.460;10.892;2023-03-11T02:28:22;96538.19;;;0.58;84.04
73085;BME280;62974;49.460;10.892;2023-03-11T02:30:50;96529.38;;;0.73;84.46
73085;BME280;62974;49.460;10.892;2023-03-11T02:33:18;96527.59;;;0.66;83.84
73085;BME280;62974;49.460;10.892;2023-03-11T02:35:46;96542.19;;;0.37;83.99
73085;BME280;62974;49.460;10.892;2023-03-11T02:38:13;96525.19;;;0.40;83.50
73085;BME280;62974;49.460;10.892;2023-03-11T02:40:50;96551.91;;;0.53;82.98
73085;BME280;62974;49.460;10.892;2023-03-11T02:43:23;96558.34;;;0.51;82.64
73085;BME280;62974;49.460;10.892;2023-03-11T02:45:52;96546.00;;;0.35;82.00
73085;BME280;62974;49.460;10.892;2023-03-11T02:48:21;96564.09;;;0.62;82.05
73085;BME280;62974;49.460;10.892;2023-03-11T02:50:49;96578.41;;;0.76;81.51
73085;BME280;62974;49.460;10.892;2023-03-11T02:53:18;96587.06;;;0.37;80.99
73085;BME280;62974;49.460;10.892;2023-03-11T02:55:45;96578.84;;;0.24;80.47
73085;BME280;62974;49.460;10.892;2023-03-11T02:58:13;96590.19;;;0.41;80.02
73085;BME280;62974;49.460;10.892;2023-03-11T03:00:42;96590.38;;;0.47;80.10
73085;BME280;62974;49.460;10.892;2023-03-11T03:03:09;96589.41;;;0.24;80.11
73085;BME280;62974;49.460;10.892;2023-03-11T03:05:37;96587.41;;;0.34;80.88
73085;BME280;62974;49.460;10.892;2023-03-11T03:08:04;96589.25;;;0.18;80.80
73085;BME280;62974;49.460;10.892;2023-03-11T03:10:32;96601.63;;;0.17;80.55
73085;BME280;62974;49.460;10.892;2023-03-11T03:12:59;96606.25;;;0.23;80.58
73085;BME280;62974;49.460;10.892;2023-03-11T03:15:27;96607.72;;;0.26;80.57
73085;BME280;62974;49.460;10.892;2023-03-11T03:17:56;96600.75;;;0.57;81.14
73085;BME280;62974;49.460;10.892;2023-03-11T03:20:24;96616.63;;;0.17;80.94
73085;BME280;62974;49.460;10.892;2023-03-11T03:22:52;96612.66;;;0.29;80.71
73085;BME280;62974;49.460;10.892;2023-03-11T03:25:19;96614.31;;;0.38;80.88
73085;BME280;62974;49.460;10.892;2023-03-11T03:27:47;96611.19;;;0.18;80.58
73085;BME280;62974;49.460;10.892;2023-03-11T03:30:15;96614.47;;;0.28;79.86
73085;BME280;62974;49.460;10.892;2023-03-11T03:32:43;96606.53;;;0.44;80.61
73085;BME280;62974;49.460;10.892;2023-03-11T03:35:12;96616.59;;;0.41;79.51
73085;BME280;62974;49.460;10.892;2023-03-11T03:37:39;96633.78;;;0.13;79.44
73085;BME280;62974;49.460;10.892;2023-03-11T03:40:08;96632.91;;;0.61;80.41
73085;BME280;62974;49.460;10.892;2023-03-11T03:42:37;96626.47;;;0.79;79.86
73085;BME280;62974;49.460;10.892;2023-03-11T03:45:06;96628.31;;;0.55;78.59
73085;BME280;62974;49.460;10.892;2023-03-11T03:47:35;96635.19;;;0.72;78.82
73085;BME280;62974;49.460;10.892;2023-03-11T03:50:04;96634.25;;;0.57;79.01
73085;BME280;62974;49.460;10.892;2023-03-11T03:52:35;96630.00;;;0.39;78.89
73085;BME280;62974;49.460;10.892;2023-03-11T03:55:03;96626.03;;;0.27;79.29
73085;BME280;62974;49.460;10.892;2023-03-11T03:57:32;96637.38;;;0.60;79.03
73085;BME280;62974;49.460;10.892;2023-03-11T03:59:59;96630.28;;;0.44;78.22
73085;BME280;62974;49.460;10.892;2023-03-11T04:02:27;96638.56;;;0.09;78.56
73085;BME280;62974;49.460;10.892;2023-03-11T04:04:54;96638.56;;;0.41;79.39
73085;BME280;62974;49.460;10.892;2023-03-11T04:07:22;96656.06;;;0.34;78.53
73085;BME280;62974;49.460;10.892;2023-03-11T04:09:51;96663.00;;;0.27;78.67
73085;BME280;62974;49.460;10.892;2023-03-11T04:12:18;96658.00;;;0.48;78.92
73085;BME280;62974;49.460;10.892;2023-03-11T04:14:46;96661.81;;;0.22;78.75
73085;BME280;62974;49.460;10.892;2023-03-11T04:17:14;96659.16;;;0.70;78.69
73085;BME280;62974;49.460;10.892;2023-03-11T04:19:43;96651.59;;;0.11;78.96
73085;BME280;62974;49.460;10.892;2023-03-11T04:22:10;96663.16;;;0.50;79.43
73085;BME280;62974;49.460;10.892;2023-03-11T04:24:38;96660.00;;;0.22;78.73
73085;BME280;62974;49.460;10.892;2023-03-11T04:27:07;96675.84;;;0.06;79.68
73085;BME280;62974;49.460;10.892;2023-03-11T04:29:34;96665.94;;;0.08;79.32
73085;BME280;62974;49.460;10.892;2023-03-11T04:32:02;96676.50;;;0.24;79.02
73085;BME280;62974;49.460;10.892;2023-03-11T04:34:30;96680.31;;;0.30;79.65
73085;BME280;62974;49.460;10.892;2023-03-11T04:36:57;96678.50;;;0.30;79.26
73085;BME280;62974;49.460;10.892;2023-03-11T04:39:25;96672.84;;;0.09;79.50
73085;BME280;62974;49.460;10.892;2023-03-11T04:41:52;96682.41;;;-0.06;79.35
73085;BME280;62974;49.460;10.892;2023-03-11T04:44:21;96681.44;;;-0.05;79.09
73085;BME280;62974;49.460;10.892;2023-03-11T04:46:49;96681.97;;;0.23;79.98
73085;BME280;62974;49.460;10.892;2023-03-11T04:49:16;96686.06;;;0.09;79.84
73085;BME280;62974;49.460;10.892;2023-03-11T04:51:44;96685.88;;;-0.06;80.29
73085;BME280;62974;49.460;10.892;2023-03-11T04:54:11;96685.22;;;0.09;80.25
73085;BME280;62974;49.460;10.892;2023-03-11T04:56:39;96685.25;;;0.33;80.19
73085;BME280;62974;49.460;10.892;2023-03-11T04:59:06;96696.00;;;0.31;80.14
73085;BME280;62974;49.460;10.892;2023-03-11T05:01:35;96695.47;;;0.12;80.33
73085;BME280;62974;49.460;10.892;2023-03-11T05:04:03;96707.09;;;-0.23;81.60
73085;BME280;62974;49.460;10.892;2023-03-11T05:06:31;96709.00;;;0.33;81.33
73085;BME280;62974;49.460;10.892;2023-03-11T05:08:58;96711.16;;;0.86;80.77
73085;BME280;62974;49.460;10.892;2023-03-11T05:11:26;96714.97;;;0.27;81.58
73085;BME280;62974;49.460;10.892;2023-03-11T05:13:53;96714.16;;;-0.24;82.50
73085;BME280;62974;49.460;10.892;2023-03-11T05:16:21;96711.28;;;-0.05;82.19
73085;BME280;62974;49.460;10.892;2023-03-11T05:18:50;96707.88;;;0.43;81.61
73085;BME280;62974;49.460;10.892;2023-03-11T05:21:17;96712.28;;;0.11;82.14
73085;BME280;62974;49.460;10.892;2023-03-11T05:23:45;96709.69;;;0.43;81.53
73085;BME280;62974;49.460;10.892;2023-03-11T05:26:12;96709.97;;;-0.01;81.20
73085;BME280;62974;49.460;10.892;2023-03-11T05:28:40;96718.50;;;-0.07;81.93
73085;BME280;62974;49.460;10.892;2023-03-11T05:31:08;96713.41;;;-0.08;81.83
73085;BME280;62974;49.460;10.892;2023-03-11T05:33:36;96722.41;;;-0.27;82.14
73085;BME280;62974;49.460;10.892;2023-03-11T05:36:07;96723.97;;;-0.08;82.36
73085;BME280;62974;49.460;10.892;2023-03-11T05:38:35;96725.03;;;0.47;81.70
73085;BME280;62974;49.460;10.892;2023-03-11T05:41:03;96738.22;;;0.23;81.20
73085;BME280;62974;49.460;10.892;2023-03-11T05:43:32;96734.84;;;-0.03;81.79
73085;BME280;62974;49.460;10.892;2023-03-11T05:45:59;96738.31;;;-0.03;81.17
73085;BME280;62974;49.460;10.892;2023-03-11T05:48:27;96745.69;;;-0.14;81.05
73085;BME280;62974;49.460;10.892;2023-03-11T05:50:54;96748.06;;;0.05;81.41
73085;BME280;62974;49.460;10.892;2023-03-11T05:53:23;96744.75;;;-0.05;80.72
73085;BME280;62974;49.460;10.892;2023-03-11T05:55:55;96749.69;;;-0.02;81.80
73085;BME280;62974;49.460;10.892;2023-03-11T05:58:23;96754.66;;;0.01;81.87
73085;BME280;62974;49.460;10.892;2023-03-11T06:00:50;96763.41;;;0.10;81.00
73085;BME280;62974;49.460;10.892;2023-03-11T06:03:18;96766.66;;;-0.13;81.73
73085;BME280;62974;49.460;10.892;2023-03-11T06:05:45;96761.63;;;0.18;81.82
73085;BME280;62974;49.460;10.892;2023-03-11T06:08:14;96767.06;;;0.25;82.01
73085;BME280;62974;49.460;10.892;2023-03-11T06:10:43;96768.72;;;0.26;81.29
73085;BME280;62974;49.460;10.892;2023-03-11T06:13:13;96766.84;;;0.02;80.98
73085;BME280;62974;49.460;10.892;2023-03-11T06:15:43;96772.00;;;0.12;81.59
73085;BME280;62974;49.460;10.892;2023-03-11T06:18:11;96774.78;;;0.02;81.90
73085;BME280;62974;49.460;10.892;2023-03-11T06:20:38;96773.00;;;0.11;81.90
73085;BME280;62974;49.460;10.892;2023-03-11T06:23:06;96774.81;;;0.10;81.39
73085;BME280;62974;49.460;10.892;2023-03-11T06:25:33;96785.84;;;0.06;81.36
73085;BME280;62974;49.460;10.892;2023-03-11T06:28:02;96796.09;;;0.17;81.13
73085;BME280;62974;49.460;10.892;2023-03-11T06:30:29;96790.91;;;-0.09;81.24
73085;BME280;62974;49.460;10.892;2023-03-11T06:32:57;96800.34;;;0.02;81.38
73085;BME280;62974;49.460;10.892;2023-03-11T06:35:25;96803.84;;;0.18;82.20
73085;BME280;62974;49.460;10.892;2023-03-11T06:37:52;96814.00;;;-0.03;81.57
73085;BME280;62974;49.460;10.892;2023-03-11T06:40:19;96810.00;;;0.35;81.88
73085;BME280;62974;49.460;10.892;2023-03-11T06:42:47;96825.63;;;0.20;82.26
73085;BME280;62974;49.460;10.892;2023-03-11T06:45:16;96811.13;;;0.24;81.47
73085;BME280;62974;49.460;10.892;2023-03-11T06:47:46;96819.81;;;0.09;81.84
73085;BME280;62974;49.460;10.892;2023-03-11T06:50:13;96824.44;;;0.07;82.24
73085;BME280;62974;49.460;10.892;2023-03-11T06:52:41;96832.19;;;0.08;82.52
73085;BME280;62974;49.460;10.892;2023-03-11T06:55:09;96834.31;;;0.05;82.96
73085;BME280;62974;49.460;10.892;2023-03-11T06:57:36;96840.75;;;0.02;82.04
73085;BME280;62974;49.460;10.892;2023-03-11T07:00:04;96843.03;;;-0.03;82.46
73085;BME280;62974;49.460;10.892;2023-03-11T07:02:37;96843.75;;;0.07;82.64
73085;BME280;62974;49.460;10.892;2023-03-11T07:05:05;96851.03;;;0.21;82.67
73085;BME280;62974;49.460;10.892;2023-03-11T07:07:33;96847.81;;;0.02;82.47
73085;BME280;62974;49.460;10.892;2023-03-11T07:10:00;96853.91;;;-0.06;82.93
73085;BME280;62974;49.460;10.892;2023-03-11T07:12:28;96855.75;;;0.02;82.81
73085;BME280;62974;49.460;10.892;2023-03-11T07:14:56;96862.53;;;0.12;83.11
73085;BME280;62974;49.460;10.892;2023-03-11T07:17:24;96879.31;;;-0.05;83.05
73085;BME280;62974;49.460;10.892;2023-03-11T07:19:53;96874.09;;;0.11;83.58
73085;BME280;62974;49.460;10.892;2023-03-11T07:22:20;96866.25;;;0.27;82.80
73085;BME280;62974;49.460;10.892;2023-03-11T07:24:48;96876.66;;;0.37;82.87
73085;BME280;62974;49.460;10.892;2023-03-11T07:27:15;96879.47;;;0.35;82.44
73085;BME280;62974;49.460;10.892;2023-03-11T07:29:43;96873.28;;;0.69;82.37
73085;BME280;62974;49.460;10.892;2023-03-11T07:32:11;96874.25;;;0.68;82.45
73085;BME280;62974;49.460;10.892;2023-03-11T07:34:39;96882.41;;;0.32;82.77
73085;BME280;62974;49.460;10.892;2023-03-11T07:37:08;96889.47;;;0.16;82.80
73085;BME280;62974;49.460;10.892;2023-03-11T07:39:36;96892.44;;;0.21;82.87
73085;BME280;62974;49.460;10.892;2023-03-11T07:42:04;96903.34;;;0.26;82.96
73085;BME280;62974;49.460;10.892;2023-03-11T07:44:31;96907.81;;;0.25;83.68
73085;BME280;62974;49.460;10.892;2023-03-11T07:47:01;96906.38;;;0.39;82.88
73085;BME280;62974;49.460;10.892;2023-03-11T07:49:28;96907.72;;;0.43;82.78
73085;BME280;62974;49.460;10.892;2023-03-11T07:51:56;96907.59;;;0.61;82.53
73085;BME280;62974;49.460;10.892;2023-03-11T07:54:24;96913.72;;;0.61;81.65
73085;BME280;62974;49.460;10.892;2023-03-11T07:56:52;96927.41;;;0.65;81.82
73085;BME280;62974;49.460;10.892;2023-03-11T07:59:19;96917.69;;;0.65;81.78
73085;BME280;62974;49.460;10.892;2023-03-11T08:01:47;96923.59;;;0.51;80.91
73085;BME280;62974;49.460;10.892;2023-03-11T08:04:15;96937.84;;;0.66;81.28
73085;BME280;62974;49.460;10.892;2023-03-11T08:06:44;96929.84;;;0.50;80.73
73085;BME280;62974;49.460;10.892;2023-03-11T08:09:12;96939.25;;;1.03;81.36
73085;BME280;62974;49.460;10.892;2023-03-11T08:11:41;96939.19;;;0.78;79.57
73085;BME280;62974;49.460;10.892;2023-03-11T08:14:09;96945.16;;;0.88;78.98
73085;BME280;62974;49.460;10.892;2023-03-11T08:16:38;96954.94;;;0.46;78.81
73085;BME280;62974;49.460;10.892;2023-03-11T08:19:09;96947.47;;;0.75;78.67
73085;BME280;62974;49.460;10.892;2023-03-11T08:21:37;96951.47;;;0.87;79.08
73085;BME280;62974;49.460;10.892;2023-03-11T08:24:05;96950.31;;;0.98;77.10
73085;BME280;62974;49.460;10.892;2023-03-11T08:26:33;96948.69;;;1.21;77.83
73085;BME280;62974;49.460;10.892;2023-03-11T08:29:02;96945.91;;;1.23;76.76
73085;BME280;62974;49.460;10.892;2023-03-11T08:31:31;96954.41;;;0.92;76.04
73085;BME280;62974;49.460;10.892;2023-03-11T08:33:59;96956.50;;;0.73;75.77
73085;BME280;62974;49.460;10.892;2023-03-11T08:36:28;96960.09;;;1.14;76.85
73085;BME280;62974;49.460;10.892;2023-03-11T08:38:56;96973.31;;;1.14;76.12
73085;BME280;62974;49.460;10.892;2023-03-11T08:41:24;96962.38;;;1.09;76.35
73085;BME280;62974;49.460;10.892;2023-03-11T08:43:51;96964.25;;;1.32;75.88
73085;BME280;62974;49.460;10.892;2023-03-11T08:46:23;96969.84;;;1.21;75.72
73085;BME280;62974;49.460;10.892;2023-03-11T08:48:52;96970.97;;;1.03;74.46
73085;BME280;62974;49.460;10.892;2023-03-11T08:51:20;96978.06;;;1.02;74.52
73085;BME280;62974;49.460;10.892;2023-03-11T08:53:48;96980.06;;;1.08;73.49
73085;BME280;62974;49.460;10.892;2023-03-11T08:56:16;96975.00;;;1.23;74.03
73085;BME280;62974;49.460;10.892;2023-03-11T08:58:44;96979.63;;;1.45;73.41
73085;BME280;62974;49.460;10.892;2023-03-11T09:01:12;96988.75;;;1.59;73.24
73085;BME280;62974;49.460;10.892;2023-03-11T09:03:41;96996.16;;;1.63;73.96
73085;BME280;62974;49.460;10.892;2023-03-11T09:06:12;96991.56;;;1.73;73.51
73085;BME280;62974;49.460;10.892;2023-03-11T09:08:41;96996.34;;;1.94;74.38
73085;BME280;62974;49.460;10.892;2023-03-11T09:11:09;96991.41;;;1.67;72.02
73085;BME280;62974;49.460;10.892;2023-03-11T09:13:38;96990.38;;;1.84;72.75
73085;BME280;62974;49.460;10.892;2023-03-11T09:16:07;96981.56;;;2.24;72.76
73085;BME280;62974;49.460;10.892;2023-03-11T09:18:35;96977.97;;;1.84;70.48
73085;BME280;62974;49.460;10.892;2023-03-11T09:21:04;96984.59;;;1.88;69.69
73085;BME280;62974;49.460;10.892;2023-03-11T09:23:32;96991.19;;;2.01;72.50
73085;BME280;62974;49.460;10.892;2023-03-11T09:25:59;97000.13;;;1.75;72.69
73085;BME280;62974;49.460;10.892;2023-03-11T09:28:27;97001.78;;;1.93;73.67
73085;BME280;62974;49.460;10.892;2023-03-11T09:30:54;97003.59;;;2.00;73.35
73085;BME280;62974;49.460;10.892;2023-03-11T09:33:25;97002.78;;;2.00;71.75
73085;BME280;62974;49.460;10.892;2023-03-11T09:35:53;96997.31;;;2.01;72.25
73085;BME280;62974;49.460;10.892;2023-03-11T09:38:22;97000.94;;;2.08;72.94
73085;BME280;62974;49.460;10.892;2023-03-11T09:40:56;97019.50;;;1.76;73.35
73085;BME280;62974;49.460;10.892;2023-03-11T09:43:34;97019.19;;;1.87;73.95
73085;BME280;62974;49.460;10.892;2023-03-11T09:46:25;97034.56;;;1.59;76.17
73085;BME280;62974;49.460;10.892;2023-03-11T09:49:00;97043.25;;;1.27;77.70
73085;BME280;62974;49.460;10.892;2023-03-11T09:51:32;97048.13;;;1.80;78.72
73085;BME280;62974;49.460;10.892;2023-03-11T09:54:09;97053.22;;;1.50;78.93
73085;BME280;62974;49.460;10.892;2023-03-11T09:56:37;97050.41;;;1.43;78.31
73085;BME280;62974;49.460;10.892;2023-03-11T09:59:14;97052.25;;;1.59;78.11
73085;BME280;62974;49.460;10.892;2023-03-11T10:01:46;97051.59;;;1.81;78.52
73085;BME280;62974;49.460;10.892;2023-03-11T10:04:20;97046.78;;;1.84;76.41
73085;BME280;62974;49.460;10.892;2023-03-11T10:06:48;97046.78;;;1.68;75.19
73085;BME280;62974;49.460;10.892;2023-03-11T10:09:34;97044.78;;;1.54;73.72
73085;BME280;62974;49.460;10.892;2023-03-11T10:12:21;97052.28;;;1.91;74.14
73085;BME280;62974;49.460;10.892;2023-03-11T10:15:04;97037.03;;;1.77;71.63
73085;BME280;62974;49.460;10.892;2023-03-11T10:18:01;97037.88;;;1.77;70.97
73085;BME280;62974;49.460;10.892;2023-03-11T10:20:39;97037.50;;;1.64;69.28
73085;BME280;62974;49.460;10.892;2023-03-11T10:23:17;97027.91;;;1.63;69.83
73085;BME280;62974;49.460;10.892;2023-03-11T10:25:56;97043.31;;;1.92;69.22
73085;BME280;62974;49.460;10.892;2023-03-11T10:28:31;97045.31;;;1.98;69.85
73085;BME280;62974;49.460;10.892;2023-03-11T10:31:03;97052.44;;;1.89;71.06
73085;BME280;62974;49.460;10.892;2023-03-11T10:33:36;97047.63;;;1.85;70.12
73085;BME280;62974;49.460;10.892;2023-03-11T10:36:07;97041.34;;;1.78;67.70
73085;BME280;62974;49.460;10.892;2023-03-11T10:38:39;97040.19;;;1.88;68.08
73085;BME280;62974;49.460;10.892;2023-03-11T10:41:16;97039.19;;;1.89;68.01
73085;BME280;62974;49.460;10.892;2023-03-11T10:43:51;97039.00;;;2.15;68.43
73085;BME280;62974;49.460;10.892;2023-03-11T10:46:23;97026.09;;;2.28;67.43
73085;BME280;62974;49.460;10.892;2023-03-11T10:48:50;97034.03;;;2.36;67.34
73085;BME280;62974;49.460;10.892;2023-03-11T10:51:19;97030.53;;;2.36;68.21
73085;BME280;62974;49.460;10.892;2023-03-11T10:53:50;97032.31;;;2.60;66.16
73085;BME280;62974;49.460;10.892;2023-03-11T10:56:29;97029.81;;;2.66;67.91
73085;BME280;62974;49.460;10.892;2023-03-11T10:58:58;97036.06;;;2.81;66.68
73085;BME280;62974;49.460;10.892;2023-03-11T11:01:26;97029.72;;;2.27;66.37
73085;BME280;62974;49.460;10.892;2023-03-11T11:03:56;97038.50;;;2.36;67.08
73085;BME280;62974;49.460;10.892;2023-03-11T11:06:28;97051.44;;;2.15;68.04
73085;BME280;62974;49.460;10.892;2023-03-11T11:09:13;97060.38;;;2.22;70.16
73085;BME280;62974;49.460;10.892;2023-03-11T11:11:59;97064.34;;;2.10;70.87
73085;BME280;62974;49.460;10.892;2023-03-11T11:14:41;97058.56;;;2.22;71.36
73085;BME280;62974;49.460;10.892;2023-03-11T11:17:16;97058.06;;;2.03;68.10
73085;BME280;62974;49.460;10.892;2023-03-11T11:19:45;97052.59;;;1.96;67.13
73085;BME280;62974;49.460;10.892;2023-03-11T11:22:15;97054.91;;;1.91;67.51
73085;BME280;62974;49.460;10.892;2023-03-11T11:24:43;97065.19;;;2.02;66.90
73085;BME280;62974;49.460;10.892;2023-03-11T11:27:16;97059.19;;;2.08;67.63
73085;BME280;62974;49.460;10.892;2023-03-11T11:29:45;97057.03;;;2.12;67.06
73085;BME280;62974;49.460;10.892;2023-03-11T11:32:18;97052.06;;;2.33;67.25
73085;BME280;62974;49.460;10.892;2023-03-11T11:34:56;97048.44;;;2.34;66.22
73085;BME280;62974;49.460;10.892;2023-03-11T11:37:25;97056.19;;;2.44;65.79
73085;BME280;62974;49.460;10.892;2023-03-11T11:40:04;97045.94;;;2.41;63.97
73085;BME280;62974;49.460;10.892;2023-03-11T11:42:41;97052.38;;;2.46;62.77
73085;BME280;62974;49.460;10.892;2023-03-11T11:45:15;97045.13;;;2.16;61.83
73085;BME280;62974;49.460;10.892;2023-03-11T11:47:45;97042.97;;;2.19;62.18
73085;BME280;62974;49.460;10.892;2023-03-11T11:50:17;97036.97;;;2.58;62.01
73085;BME280;62974;49.460;10.892;2023-03-11T11:52:48;97044.78;;;2.35;59.32
73085;BME280;62974;49.460;10.892;2023-03-11T11:55:20;97043.94;;;2.59;61.34
73085;BME280;62974;49.460;10.892;2023-03-11T11:57:51;97056.13;;;2.76;62.58
73085;BME280;62974;49.460;10.892;2023-03-11T12:00:20;97055.66;;;2.64;60.78
73085;BME280;62974;49.460;10.892;2023-03-11T12:03:05;97056.13;;;2.68;62.64
73085;BME280;62974;49.460;10.892;2023-03-11T12:05:42;97051.69;;;2.52;62.23
73085;BME280;62974;49.460;10.892;2023-03-11T12:08:16;97056.19;;;2.35;64.58
73085;BME280;62974;49.460;10.892;2023-03-11T12:10:51;97070.63;;;2.09;67.95
73085;BME280;62974;49.460;10.892;2023-03-11T12:13:36;97077.50;;;1.53;68.88
73085;BME280;62974;49.460;10.892;2023-03-11T12:16:17;97079.34;;;1.61;70.48
73085;BME280;62974;49.460;10.892;2023-03-11T12:18:51;97083.63;;;1.46;70.80
73085;BME280;62974;49.460;10.892;2023-03-11T12:21:31;97065.09;;;1.46;69.15
73085;BME280;62974;49.460;10.892;2023-03-11T12:24:18;97070.44;;;1.70;70.08
73085;BME280;62974;49.460;10.892;2023-03-11T12:26:51;97073.66;;;1.39;69.50
73085;BME280;62974;49.460;10.892;2023-03-11T12:29:25;97087.44;;;1.51;70.99
73085;BME280;62974;49.460;10.892;2023-03-11T12:31:55;97078.88;;;1.73;69.68
73085;BME280;62974;49.460;10.892;2023-03-11T12:34:23;97080.03;;;1.63;70.20
73085;BME280;62974;49.460;10.892;2023-03-11T12:36:51;97078.06;;;1.97;70.61
73085;BME280;62974;49.460;10.892;2023-03-11T12:39:21;97069.59;;;1.69;68.92
73085;BME280;62974;49.460;10.892;2023-03-11T12:42:15;97064.50;;;2.16;69.38
73085;BME280;62974;49.460;10.892;2023-03-11T12:44:45;97065.97;;;2.27;68.07
73085;BME280;62974;49.460;10.892;2023-03-11T12:47:21;97066.50;;;1.98;67.96
73085;BME280;62974;49.460;10.892;2023-03-11T12:49:50;97076.41;;;2.20;68.62
73085;BME280;62974;49.460;10.892;2023-03-11T12:52:26;97078.38;;;1.78;68.31
73085;BME280;62974;49.460;10.892;2023-03-11T12:58:23;97076.41;;;1.88;69.82
73085;BME280;62974;49.460;10.892;2023-03-11T13:01:13;97080.03;;;2.03;69.93
73085;BME280;62974;49.460;10.892;2023-03-11T13:03:52;97087.63;;;1.58;69.73
73085;BME280;62974;49.460;10.892;2023-03-11T13:06:36;97086.66;;;1.67;70.25
73085;BME280;62974;49.460;10.892;2023-03-11T13:09:12;97088.91;;;1.46;69.88
73085;BME280;62974;49.460;10.892;2023-03-11T13:11:42;97090.59;;;1.55;69.96
73085;BME280;62974;49.460;10.892;2023-03-11T13:14:22;97093.88;;;1.49;69.55
73085;BME280;62974;49.460;10.892;2023-03-11T13:16:52;97089.63;;;1.80;69.08
73085;BME280;62974;49.460;10.892;2023-03-11T13:19:48;97079.84;;;1.72;68.56
73085;BME280;62974;49.460;10.892;2023-03-11T13:22:41;97089.16;;;1.93;68.51